createdAt,value
2023-07-07T00:01:22.216Z,21.52
2023-07-07T00:03:58.891Z,21.74
2023-07-07T00:06:28.085Z,21.44
2023-07-07T00:09:01.159Z,21.21
2023-07-07T00:11:29.817Z,21.22
2023-07-07T00:14:01.829Z,21.30
2023-07-07T00:16:30.590Z,21.02
2023-07-07T00:19:05.158Z,20.91
2023-07-07T00:21:33.575Z,21.01
2023-07-07T00:24:11.498Z,21.14
2023-07-07T00:26:41.791Z,21.06
2023-07-07T00:29:19.192Z,21.25
2023-07-07T00:31:47.399Z,21.27
2023-07-07T00:34:19.277Z,21.05
2023-07-07T00:36:53.538Z,20.98
2023-07-07T00:39:24.093Z,20.84
2023-07-07T00:41:58.187Z,21.02
2023-07-07T00:44:39.719Z,20.87
2023-07-07T00:47:25.409Z,20.83
2023-07-07T00:50:08.011Z,20.89
2023-07-07T00:52:37.680Z,20.91
2023-07-07T00:55:10.383Z,20.75
2023-07-07T00:57:45.238Z,20.89
2023-07-07T01:00:22.039Z,20.86
2023-07-07T01:02:55.221Z,20.97
2023-07-07T01:05:33.345Z,21.11
2023-07-07T01:08:08.344Z,21.45
2023-07-07T01:10:36.675Z,21.12
2023-07-07T01:13:09.238Z,21.09
2023-07-07T01:15:46.674Z,20.82
2023-07-07T01:18:22.030Z,21.06
2023-07-07T01:21:03.032Z,21.09
2023-07-07T01:24:03.477Z,21.03
2023-07-07T01:27:19.539Z,21.18
2023-07-07T01:30:32.792Z,20.91
2023-07-07T01:33:09.706Z,21.08
2023-07-07T01:35:39.534Z,21.12
2023-07-07T01:38:15.693Z,20.68
2023-07-07T01:40:49.939Z,20.56
2023-07-07T01:43:25.968Z,20.81
2023-07-07T01:46:05.242Z,20.56
2023-07-07T01:48:49.777Z,20.48
2023-07-07T01:51:21.973Z,20.59
2023-07-07T01:53:51.680Z,20.69
2023-07-07T01:56:32.498Z,20.35
2023-07-07T01:59:04.574Z,20.60
2023-07-07T02:01:36.233Z,20.51
2023-07-07T02:04:15.542Z,20.61
2023-07-07T02:06:52.072Z,20.48
2023-07-07T02:09:29.282Z,20.48
2023-07-07T02:11:59.739Z,20.39
2023-07-07T02:14:28.783Z,20.49
2023-07-07T02:16:56.789Z,20.60
2023-07-07T02:19:36.374Z,20.35
2023-07-07T02:22:07.120Z,20.30
2023-07-07T02:24:38.910Z,20.25
2023-07-07T02:27:11.898Z,20.39
2023-07-07T02:29:51.933Z,20.24
2023-07-07T02:32:31.934Z,20.32
2023-07-07T02:35:15.533Z,19.96
2023-07-07T02:37:46.300Z,19.98
2023-07-07T02:40:20.261Z,20.05
2023-07-07T02:42:58.849Z,20.12
2023-07-07T02:45:32.494Z,20.30
2023-07-07T02:48:03.095Z,20.34
2023-07-07T02:50:33.672Z,20.45
2023-07-07T02:53:01.828Z,20.32
2023-07-07T02:55:35.659Z,20.27
2023-07-07T02:58:08.962Z,20.39
2023-07-07T03:00:38.587Z,20.45
2023-07-07T03:03:17.290Z,20.42
2023-07-07T03:05:50.395Z,20.50
2023-07-07T03:08:21.266Z,20.48
2023-07-07T03:10:54.715Z,20.41
2023-07-07T03:13:27.326Z,20.55
2023-07-07T03:15:59.628Z,20.32
2023-07-07T03:18:31.114Z,20.28
2023-07-07T03:21:07.574Z,20.41
2023-07-07T03:23:38.289Z,20.34
2023-07-07T03:26:15.028Z,20.40
2023-07-07T03:28:51.196Z,20.37
2023-07-07T03:31:25.381Z,20.43
2023-07-07T03:34:05.295Z,20.52
2023-07-07T03:36:46.525Z,20.43
2023-07-07T03:39:21.290Z,20.48
2023-07-07T03:41:58.123Z,20.48
2023-07-07T03:44:27.310Z,20.46
2023-07-07T03:47:01.586Z,20.50
2023-07-07T03:49:32.461Z,20.35
2023-07-07T03:52:06.396Z,20.43
2023-07-07T03:54:35.113Z,20.31
2023-07-07T03:57:12.043Z,20.48
2023-07-07T03:59:43.283Z,20.55
2023-07-07T04:02:14.655Z,20.24
2023-07-07T04:04:48.605Z,20.30
2023-07-07T04:07:21.759Z,20.54
2023-07-07T04:09:52.688Z,20.67
2023-07-07T04:12:24.687Z,20.54
2023-07-07T04:14:58.388Z,20.46
2023-07-07T04:17:32.394Z,20.59
2023-07-07T04:20:01.905Z,20.70
2023-07-07T04:22:43.936Z,20.49
2023-07-07T04:25:15.967Z,20.39
2023-07-07T04:27:46.281Z,20.68
2023-07-07T04:30:21.388Z,20.44
2023-07-07T04:32:52.581Z,20.43
2023-07-07T04:35:23.678Z,20.31
2023-07-07T04:38:01.595Z,20.29
2023-07-07T04:40:34.353Z,20.32
2023-07-07T04:43:03.185Z,20.59
2023-07-07T04:45:35.497Z,20.43
2023-07-07T04:48:11.150Z,20.54
2023-07-07T04:50:42.969Z,20.56
2023-07-07T04:53:16.740Z,20.51
2023-07-07T04:55:47.822Z,20.63
2023-07-07T04:58:21.103Z,20.95
2023-07-07T05:00:55.243Z,21.08
2023-07-07T05:03:24.227Z,20.92
2023-07-07T05:05:55.272Z,20.97
2023-07-07T05:08:27.003Z,21.20
2023-07-07T05:10:55.814Z,21.57
2023-07-07T05:13:30.830Z,21.52
2023-07-07T05:16:06.227Z,21.92
2023-07-07T05:18:37.499Z,21.78
2023-07-07T05:21:07.298Z,21.73
2023-07-07T05:23:48.361Z,21.88
2023-07-07T05:26:19.011Z,22.03
2023-07-07T05:28:52.294Z,22.03
2023-07-07T05:31:26.880Z,21.87
2023-07-07T05:33:58.277Z,21.91
2023-07-07T05:36:29.927Z,21.90
2023-07-07T05:39:00.681Z,22.00
2023-07-07T05:41:30.050Z,22.23
2023-07-07T05:44:06.786Z,22.17
2023-07-07T05:46:40.769Z,22.19
2023-07-07T05:49:11.584Z,22.01
2023-07-07T05:51:45.728Z,22.20
2023-07-07T05:54:27.586Z,22.13
2023-07-07T05:57:00.294Z,22.20
2023-07-07T05:59:39.773Z,22.16
2023-07-07T06:02:10.653Z,22.26
2023-07-07T06:04:42.322Z,22.30
2023-07-07T06:07:13.416Z,22.31
2023-07-07T06:09:50.896Z,22.49
2023-07-07T06:12:21.618Z,22.41
2023-07-07T06:14:49.690Z,22.55
2023-07-07T06:17:22.558Z,22.44
2023-07-07T06:19:52.061Z,22.59
2023-07-07T06:22:21.413Z,22.62
2023-07-07T06:24:52.541Z,22.85
2023-07-07T06:27:26.511Z,22.69
2023-07-07T06:30:05.420Z,22.97
2023-07-07T06:32:37.399Z,23.01
2023-07-07T06:35:07.145Z,22.89
2023-07-07T06:37:40.735Z,23.08
2023-07-07T06:40:22.096Z,23.02
2023-07-07T06:42:52.816Z,22.96
2023-07-07T06:45:23.537Z,23.06
2023-07-07T06:47:52.804Z,23.26
2023-07-07T06:50:28.762Z,23.01
2023-07-07T06:52:56.834Z,23.21
2023-07-07T06:55:29.305Z,23.19
2023-07-07T06:58:00.943Z,23.06
2023-07-07T07:00:32.317Z,23.37
2023-07-07T07:03:01.743Z,23.32
2023-07-07T07:05:32.901Z,23.38
2023-07-07T07:08:08.989Z,23.47
2023-07-07T07:10:41.697Z,23.46
2023-07-07T07:13:14.573Z,23.45
2023-07-07T07:15:50.565Z,23.75
2023-07-07T07:18:19.899Z,23.80
2023-07-07T07:20:51.766Z,24.13
2023-07-07T07:23:21.509Z,23.76
2023-07-07T07:25:59.186Z,23.70
2023-07-07T07:28:27.408Z,23.85
2023-07-07T07:31:03.607Z,24.00
2023-07-07T07:33:33.317Z,23.99
2023-07-07T07:36:02.439Z,24.03
2023-07-07T07:38:36.812Z,23.81
2023-07-07T07:41:20.364Z,23.96
2023-07-07T07:43:50.766Z,24.07
2023-07-07T07:46:33.143Z,23.94
2023-07-07T07:49:02.285Z,23.91
2023-07-07T07:51:36.666Z,24.03
2023-07-07T07:54:12.313Z,24.36
2023-07-07T07:56:45.834Z,24.55
2023-07-07T07:59:23.234Z,24.51
2023-07-07T08:01:52.749Z,24.59
2023-07-07T08:04:21.317Z,24.77
2023-07-07T08:06:56.120Z,24.73
2023-07-07T08:09:36.706Z,24.28
2023-07-07T08:12:24.656Z,24.50
2023-07-07T08:14:58.588Z,24.76
2023-07-07T08:17:32.302Z,24.54
2023-07-07T08:20:01.319Z,24.76
2023-07-07T08:22:38.906Z,24.94
2023-07-07T08:25:15.152Z,24.88
2023-07-07T08:30:33.595Z,24.94
2023-07-07T08:33:10.131Z,25.07
2023-07-07T08:35:42.171Z,25.17
2023-07-07T08:38:16.690Z,25.21
2023-07-07T08:40:52.849Z,24.94
2023-07-07T08:43:34.279Z,25.08
2023-07-07T08:46:12.446Z,25.20
2023-07-07T08:48:54.150Z,25.41
2023-07-07T08:51:29.405Z,25.37
2023-07-07T08:54:13.733Z,25.30
2023-07-07T08:56:49.446Z,25.57
2023-07-07T08:59:40.138Z,25.55
2023-07-07T09:02:19.713Z,25.74
2023-07-07T09:04:58.791Z,25.72
2023-07-07T09:07:55.424Z,25.62
2023-07-07T09:10:38.318Z,25.56
2023-07-07T09:13:18.049Z,25.58
2023-07-07T09:16:02.003Z,25.88
2023-07-07T09:18:38.603Z,26.14
2023-07-07T09:21:23.509Z,26.36
2023-07-07T09:23:56.832Z,26.35
2023-07-07T09:26:29.654Z,26.52
2023-07-07T09:29:06.595Z,26.52
2023-07-07T09:31:42.685Z,26.50
2023-07-07T09:34:14.286Z,26.66
2023-07-07T09:36:53.012Z,26.76
2023-07-07T09:39:50.011Z,26.52
2023-07-07T09:42:33.327Z,26.67
2023-07-07T09:45:13.086Z,26.96
2023-07-07T09:47:50.956Z,27.03
2023-07-07T09:50:44.534Z,26.86
2023-07-07T09:53:24.185Z,27.01
2023-07-07T09:56:04.471Z,26.99
2023-07-07T09:58:39.711Z,26.96
2023-07-07T10:01:19.163Z,26.96
2023-07-07T10:03:55.201Z,27.36
2023-07-07T10:06:33.426Z,27.52
2023-07-07T10:09:04.150Z,27.29
2023-07-07T10:14:20.603Z,27.39
2023-07-07T10:17:03.777Z,27.47
2023-07-07T10:19:45.158Z,27.80
2023-07-07T10:22:16.740Z,28.09
2023-07-07T10:24:51.403Z,28.03
2023-07-07T10:27:26.230Z,28.16
2023-07-07T10:30:01.637Z,28.33
2023-07-07T10:32:33.593Z,28.32
2023-07-07T10:35:11.522Z,28.20
2023-07-07T10:37:41.653Z,28.19
2023-07-07T10:40:15.400Z,28.40
2023-07-07T10:42:54.938Z,28.64
2023-07-07T10:45:28.544Z,28.54
2023-07-07T10:47:59.441Z,28.91
2023-07-07T10:50:37.249Z,28.96
2023-07-07T10:53:28.841Z,28.96
2023-07-07T10:56:21.402Z,28.46
2023-07-07T10:59:18.773Z,28.51
2023-07-07T11:02:04.682Z,28.55
2023-07-07T11:04:59.258Z,28.48
2023-07-07T11:07:49.253Z,28.69
2023-07-07T11:10:48.507Z,28.75
2023-07-07T11:13:23.300Z,28.75
2023-07-07T11:16:04.752Z,28.36
2023-07-07T11:19:00.085Z,27.92
2023-07-07T11:21:43.541Z,28.07
2023-07-07T11:24:35.798Z,28.40
2023-07-07T11:27:38.998Z,28.38
2023-07-07T11:30:18.501Z,28.85
2023-07-07T11:32:58.856Z,29.11
2023-07-07T11:35:41.473Z,29.44
2023-07-07T11:38:53.513Z,29.62
2023-07-07T11:41:36.804Z,29.57
2023-07-07T11:44:26.725Z,29.71
2023-07-07T11:47:13.176Z,29.73
2023-07-07T11:52:50.304Z,29.83
2023-07-07T11:55:30.467Z,29.81
2023-07-07T11:58:15.947Z,30.10
2023-07-07T12:00:53.157Z,30.46
2023-07-07T12:03:49.761Z,30.52
2023-07-07T12:06:33.450Z,29.16
2023-07-07T12:09:08.868Z,29.02
2023-07-07T12:11:46.301Z,29.59
2023-07-07T12:14:32.753Z,29.12
2023-07-07T12:17:01.789Z,28.77
2023-07-07T12:19:38.467Z,28.98
2023-07-07T12:22:15.281Z,29.29
2023-07-07T12:24:48.388Z,29.55
2023-07-07T12:27:24.518Z,29.93
2023-07-07T12:30:01.076Z,30.13
2023-07-07T12:32:32.388Z,29.98
2023-07-07T12:35:13.199Z,29.90
2023-07-07T12:37:50.814Z,29.88
2023-07-07T12:40:30.879Z,29.45
2023-07-07T12:43:13.429Z,29.75
2023-07-07T12:45:53.067Z,30.15
2023-07-07T12:48:24.207Z,30.72
2023-07-07T12:50:53.593Z,30.96
2023-07-07T12:53:32.318Z,31.06
2023-07-07T12:56:20.440Z,31.14
2023-07-07T12:58:54.095Z,31.69
2023-07-07T13:01:46.015Z,31.97
2023-07-07T13:04:27.832Z,31.82
2023-07-07T13:07:11.557Z,32.05
2023-07-07T13:10:00.865Z,32.07
2023-07-07T13:12:51.437Z,31.60
2023-07-07T13:15:32.343Z,30.14
2023-07-07T13:18:09.478Z,30.87
2023-07-07T13:20:43.880Z,31.33
2023-07-07T13:23:18.637Z,31.77
2023-07-07T13:26:00.454Z,32.00
2023-07-07T13:28:37.693Z,32.19
2023-07-07T13:31:11.721Z,32.54
2023-07-07T13:33:51.006Z,32.86
2023-07-07T13:36:24.183Z,32.78
2023-07-07T13:38:58.271Z,32.82
2023-07-07T13:41:39.373Z,33.26
2023-07-07T13:44:24.111Z,32.89
2023-07-07T13:47:08.561Z,33.26
2023-07-07T13:49:48.907Z,33.56
2023-07-07T13:52:25.206Z,33.46
2023-07-07T13:54:56.921Z,33.45
2023-07-07T13:57:30.611Z,33.94
2023-07-07T14:00:08.226Z,33.59
2023-07-07T14:02:59.375Z,33.36
2023-07-07T14:05:57.014Z,33.76
2023-07-07T14:08:30.334Z,33.09
2023-07-07T14:11:10.540Z,33.44
2023-07-07T14:13:45.852Z,33.59
2023-07-07T14:16:24.208Z,34.15
2023-07-07T14:19:02.569Z,34.23
2023-07-07T14:21:37.440Z,34.78
2023-07-07T14:24:07.953Z,34.43
2023-07-07T14:26:42.010Z,34.29
2023-07-07T14:29:22.932Z,34.11
2023-07-07T14:31:54.704Z,33.96
2023-07-07T14:34:23.228Z,34.91
2023-07-07T14:37:06.900Z,34.45
2023-07-07T14:39:39.812Z,35.57
2023-07-07T14:42:22.873Z,35.82
2023-07-07T14:44:59.090Z,36.00
2023-07-07T14:47:31.059Z,36.01
2023-07-07T14:50:05.941Z,35.67
2023-07-07T14:52:55.104Z,35.66
2023-07-07T14:55:28.109Z,35.24
2023-07-07T14:58:01.435Z,35.49
2023-07-07T15:00:36.805Z,35.50
2023-07-07T15:03:36.825Z,36.06
2023-07-07T15:06:28.528Z,36.25
2023-07-07T15:09:03.967Z,36.06
2023-07-07T15:11:43.302Z,35.17
2023-07-07T15:14:18.358Z,34.36
2023-07-07T15:16:55.809Z,35.30
2023-07-07T15:19:31.347Z,35.76
2023-07-07T15:22:05.579Z,36.52
2023-07-07T15:24:54.676Z,35.66
2023-07-07T15:27:25.731Z,36.44
2023-07-07T15:29:56.064Z,36.32
2023-07-07T15:32:34.079Z,35.57
2023-07-07T15:35:07.761Z,36.16
2023-07-07T15:37:47.643Z,36.87
2023-07-07T15:40:23.565Z,37.15
2023-07-07T15:43:12.095Z,36.94
2023-07-07T15:45:53.436Z,35.73
2023-07-07T15:48:26.804Z,36.56
2023-07-07T15:51:05.048Z,36.66
2023-07-07T15:53:36.893Z,35.74
2023-07-07T15:56:18.885Z,36.31
2023-07-07T15:58:51.865Z,36.18
2023-07-07T16:01:19.998Z,37.00
2023-07-07T16:03:52.095Z,36.86
2023-07-07T16:06:28.829Z,37.28
2023-07-07T16:08:59.653Z,37.28
2023-07-07T16:11:41.260Z,36.67
2023-07-07T16:14:23.836Z,37.15
2023-07-07T16:16:57.891Z,37.25
2023-07-07T16:19:32.866Z,37.24
2023-07-07T16:22:06.293Z,36.81
2023-07-07T16:24:43.464Z,36.90
2023-07-07T16:27:21.986Z,35.88
2023-07-07T16:29:50.225Z,35.74
2023-07-07T16:32:26.927Z,36.12
2023-07-07T16:34:58.250Z,35.08
2023-07-07T16:37:31.759Z,34.81
2023-07-07T16:40:04.131Z,35.33
2023-07-07T16:42:41.137Z,35.34
2023-07-07T16:45:19.857Z,35.20
2023-07-07T16:47:57.173Z,35.38
2023-07-07T16:50:28.927Z,35.95
2023-07-07T16:53:07.859Z,36.41
2023-07-07T16:55:44.993Z,35.42
2023-07-07T16:58:19.685Z,35.74
2023-07-07T17:00:50.675Z,35.84
2023-07-07T17:03:21.719Z,35.47
2023-07-07T17:05:58.457Z,35.78
2023-07-07T17:08:37.213Z,35.92
2023-07-07T17:11:20.974Z,35.84
2023-07-07T17:13:56.353Z,35.88
2023-07-07T17:16:39.052Z,35.87
2023-07-07T17:19:19.649Z,36.09
2023-07-07T17:21:53.376Z,36.10
2023-07-07T17:24:24.194Z,35.88
2023-07-07T17:26:55.112Z,35.66
2023-07-07T17:29:38.897Z,35.26
2023-07-07T17:32:18.208Z,35.26
2023-07-07T17:34:48.779Z,35.44
2023-07-07T17:37:19.831Z,35.04
2023-07-07T17:40:03.235Z,34.86
2023-07-07T17:42:37.628Z,34.82
2023-07-07T17:45:18.973Z,34.58
2023-07-07T17:47:48.161Z,33.90
2023-07-07T17:50:28.062Z,33.90
2023-07-07T17:52:57.396Z,33.57
2023-07-07T17:55:25.739Z,33.16
2023-07-07T17:57:54.069Z,32.16
2023-07-07T18:00:25.942Z,31.93
2023-07-07T18:02:56.985Z,31.75
2023-07-07T18:05:34.646Z,31.36
2023-07-07T18:08:04.403Z,31.22
2023-07-07T18:10:44.434Z,30.78
2023-07-07T18:13:20.607Z,30.74
2023-07-07T18:16:03.907Z,30.48
2023-07-07T18:19:06.295Z,30.24
2023-07-07T18:21:51.820Z,30.08
2023-07-07T18:24:22.181Z,30.00
2023-07-07T18:26:52.699Z,29.90
2023-07-07T18:29:33.705Z,29.74
2023-07-07T18:32:10.547Z,29.56
2023-07-07T18:34:39.912Z,29.58
2023-07-07T18:37:11.675Z,29.32
2023-07-07T18:39:48.140Z,29.31
2023-07-07T18:42:17.878Z,29.26
2023-07-07T18:44:55.425Z,29.06
2023-07-07T18:47:34.489Z,29.10
2023-07-07T18:50:18.226Z,28.83
2023-07-07T18:52:49.502Z,28.80
2023-07-07T18:55:23.879Z,28.69
2023-07-07T18:58:06.301Z,28.63
2023-07-07T19:00:38.276Z,28.38
2023-07-07T19:03:11.963Z,28.42
2023-07-07T19:05:41.855Z,28.20
2023-07-07T19:08:19.695Z,27.95
2023-07-07T19:10:51.133Z,27.80
2023-07-07T19:13:25.019Z,27.91
2023-07-07T19:16:02.382Z,27.92
2023-07-07T19:18:37.666Z,27.61
2023-07-07T19:21:16.429Z,27.93
2023-07-07T19:23:49.779Z,27.55
2023-07-07T19:26:28.741Z,27.63
2023-07-07T19:29:06.051Z,27.61
2023-07-07T19:31:44.871Z,27.54
2023-07-07T19:34:23.637Z,27.40
2023-07-07T19:36:55.648Z,27.38
2023-07-07T19:39:27.914Z,27.32
2023-07-07T19:41:59.415Z,27.18
2023-07-07T19:44:30.534Z,27.07
2023-07-07T19:47:02.397Z,27.29
2023-07-07T19:49:36.074Z,27.16
2023-07-07T19:52:20.381Z,27.01
2023-07-07T19:54:57.924Z,26.89
2023-07-07T19:57:31.893Z,27.05
2023-07-07T20:00:16.220Z,26.81
2023-07-07T20:02:50.278Z,26.72
2023-07-07T20:05:43.621Z,26.92
2023-07-07T20:08:25.830Z,26.67
2023-07-07T20:11:05.233Z,26.68
2023-07-07T20:13:36.610Z,26.57
2023-07-07T20:16:07.184Z,26.65
2023-07-07T20:18:41.274Z,26.67
2023-07-07T20:21:17.770Z,26.58
2023-07-07T20:23:51.511Z,26.69
2023-07-07T20:26:25.342Z,26.63
2023-07-07T20:29:05.936Z,26.39
2023-07-07T20:31:36.407Z,26.28
2023-07-07T20:34:12.477Z,26.25
2023-07-07T20:36:47.162Z,26.28
2023-07-07T20:39:25.738Z,26.21
2023-07-07T20:42:09.670Z,26.09
2023-07-07T20:44:41.976Z,26.04
2023-07-07T20:47:11.617Z,25.70
2023-07-07T20:49:50.911Z,25.51
2023-07-07T20:52:20.829Z,25.49
2023-07-07T20:54:51.197Z,25.45
2023-07-07T20:57:28.846Z,25.61
2023-07-07T21:00:03.262Z,25.53
2023-07-07T21:02:34.023Z,25.48
2023-07-07T21:05:05.554Z,25.58
2023-07-07T21:07:40.461Z,25.43
2023-07-07T21:10:24.874Z,25.45
2023-07-07T21:12:56.112Z,25.11
2023-07-07T21:15:27.141Z,25.10
2023-07-07T21:17:59.337Z,25.02
2023-07-07T21:20:32.881Z,25.06
2023-07-07T21:23:19.437Z,24.88
2023-07-07T21:25:58.225Z,24.90
2023-07-07T21:28:36.036Z,24.95
2023-07-07T21:31:13.078Z,24.87
2023-07-07T21:33:44.191Z,24.81
2023-07-07T21:36:20.627Z,24.99
2023-07-07T21:38:52.224Z,24.95
2023-07-07T21:41:31.373Z,24.72
2023-07-07T21:44:00.143Z,24.85
2023-07-07T21:46:30.601Z,24.72
2023-07-07T21:49:05.980Z,24.86
2023-07-07T21:51:35.509Z,24.69
2023-07-07T21:54:15.862Z,24.58
2023-07-07T21:56:46.652Z,24.57
2023-07-07T21:59:24.184Z,24.59
2023-07-07T22:01:54.665Z,24.36
2023-07-07T22:04:26.309Z,24.35
2023-07-07T22:06:55.437Z,24.46
2023-07-07T22:09:28.036Z,24.28
2023-07-07T22:11:56.773Z,24.20
2023-07-07T22:14:26.740Z,24.17
2023-07-07T22:16:58.543Z,24.25
2023-07-07T22:19:30.199Z,24.21
2023-07-07T22:22:00.007Z,23.97
2023-07-07T22:24:34.415Z,23.94
2023-07-07T22:27:12.409Z,23.99
2023-07-07T22:29:40.945Z,23.97
2023-07-07T22:32:32.829Z,23.91
2023-07-07T22:35:07.635Z,23.83
2023-07-07T22:37:37.149Z,23.97
2023-07-07T22:40:19.930Z,23.90
2023-07-07T22:42:49.112Z,23.92
2023-07-07T22:45:20.498Z,24.09
2023-07-07T22:47:50.737Z,24.06
2023-07-07T22:50:21.416Z,23.94
2023-07-07T22:53:01.015Z,23.93
2023-07-07T22:55:39.323Z,23.85
2023-07-07T22:58:16.779Z,23.80
2023-07-07T23:00:49.000Z,23.65
2023-07-07T23:03:25.408Z,23.67
2023-07-07T23:05:55.630Z,23.79
2023-07-07T23:08:27.310Z,23.61
2023-07-07T23:11:06.631Z,23.85
2023-07-07T23:13:38.085Z,23.80
2023-07-07T23:16:14.131Z,23.54
2023-07-07T23:18:45.858Z,23.55
2023-07-07T23:21:19.222Z,23.45
2023-07-07T23:23:50.934Z,23.38
2023-07-07T23:26:28.724Z,23.51
2023-07-07T23:28:59.725Z,23.60
2023-07-07T23:31:32.621Z,23.37
2023-07-07T23:34:03.502Z,23.35
2023-07-07T23:36:35.474Z,23.15
2023-07-07T23:39:15.785Z,23.19
2023-07-07T23:41:50.475Z,22.77
2023-07-07T23:44:21.045Z,22.96
2023-07-07T23:46:58.890Z,22.99
2023-07-07T23:49:30.036Z,23.07
2023-07-07T23:51:58.583Z,22.86
2023-07-07T23:54:40.415Z,22.90
2023-07-07T23:57:15.751Z,23.22
2023-07-07T23:59:46.085Z,22.78
